Terminal Aerodrome Forecast
Issued by NWS Rapid City, SD

Home | Current Version | Previous Version | Graphics & Text | Print | Product List | Glossary On
Versions: 1 2 3 4 5 6 7 8 9 10 11 12 13 14 15 16 17 18 19 20 21
000
FTUS43 KUNR 242100 AAB
TAFRAP
TAF AMD
KRAP 242147Z 2422/2518 33017G25KT 6SM -SHSN SCT020 BKN035 OVC060
     FM250000 32011KT P6SM BKN070
     FM250900 22007KT P6SM BKN100=

USA.gov is the U.S. government's official web portal to all federal, state and local government web resources and services.